sensor_id;sensor_type;location;lat;lon;timestamp;P1;durP1;ratioP1;P2;durP2;ratioP2
51332;SDS011;37417;48.118;11.734;2023-04-03T00:00:43;12.32;;;8.50;;
51332;SDS011;37417;48.118;11.734;2023-04-03T00:03:08;10.38;;;7.40;;
51332;SDS011;37417;48.118;11.734;2023-04-03T00:05:33;10.63;;;7.93;;
51332;SDS011;37417;48.118;11.734;2023-04-03T00:07:59;11.82;;;7.57;;
51332;SDS011;37417;48.118;11.734;2023-04-03T00:10:27;15.35;;;9.05;;
51332;SDS011;37417;48.118;11.734;2023-04-03T00:12:53;8.82;;;6.88;;
51332;SDS011;37417;48.118;11.734;2023-04-03T00:15:18;10.40;;;8.07;;
51332;SDS011;37417;48.118;11.734;2023-04-03T00:17:44;10.43;;;7.90;;
51332;SDS011;37417;48.118;11.734;2023-04-03T00:20:10;9.35;;;7.63;;
51332;SDS011;37417;48.118;11.734;2023-04-03T00:22:36;11.40;;;8.70;;
51332;SDS011;37417;48.118;11.734;2023-04-03T00:25:01;10.65;;;6.70;;
51332;SDS011;37417;48.118;11.734;2023-04-03T00:27:27;12.82;;;7.43;;
51332;SDS011;37417;48.118;11.734;2023-04-03T00:29:53;9.20;;;7.45;;
51332;SDS011;37417;48.118;11.734;2023-04-03T00:32:18;10.63;;;7.50;;
51332;SDS011;37417;48.118;11.734;2023-04-03T00:34:43;9.93;;;6.75;;
51332;SDS011;37417;48.118;11.734;2023-04-03T00:37:09;11.07;;;8.63;;
51332;SDS011;37417;48.118;11.734;2023-04-03T00:39:34;9.75;;;6.70;;
51332;SDS011;37417;48.118;11.734;2023-04-03T00:42:00;13.02;;;8.10;;
51332;SDS011;37417;48.118;11.734;2023-04-03T00:46:53;11.75;;;7.05;;
51332;SDS011;37417;48.118;11.734;2023-04-03T00:49:19;10.07;;;8.05;;
51332;SDS011;37417;48.118;11.734;2023-04-03T00:51:44;11.18;;;7.35;;
51332;SDS011;37417;48.118;11.734;2023-04-03T00:54:10;10.27;;;7.95;;
51332;SDS011;37417;48.118;11.734;2023-04-03T00:56:37;11.32;;;6.78;;
51332;SDS011;37417;48.118;11.734;2023-04-03T00:59:04;10.93;;;8.27;;
51332;SDS011;37417;48.118;11.734;2023-04-03T01:01:30;10.40;;;6.65;;
51332;SDS011;37417;48.118;11.734;2023-04-03T01:03:58;10.43;;;7.28;;
51332;SDS011;37417;48.118;11.734;2023-04-03T01:06:26;10.32;;;7.47;;
51332;SDS011;37417;48.118;11.734;2023-04-03T01:08:56;10.25;;;7.07;;
51332;SDS011;37417;48.118;11.734;2023-04-03T01:11:21;10.02;;;7.82;;
51332;SDS011;37417;48.118;11.734;2023-04-03T01:13:47;9.70;;;7.13;;
51332;SDS011;37417;48.118;11.734;2023-04-03T01:16:12;10.07;;;7.47;;
51332;SDS011;37417;48.118;11.734;2023-04-03T01:18:39;8.52;;;7.20;;
51332;SDS011;37417;48.118;11.734;2023-04-03T01:24:10;11.98;;;7.72;;
51332;SDS011;37417;48.118;11.734;2023-04-03T01:26:45;10.50;;;7.53;;
51332;SDS011;37417;48.118;11.734;2023-04-03T01:29:10;9.57;;;7.30;;
51332;SDS011;37417;48.118;11.734;2023-04-03T01:34:10;11.68;;;8.48;;
51332;SDS011;37417;48.118;11.734;2023-04-03T01:36:36;11.43;;;8.13;;
51332;SDS011;37417;48.118;11.734;2023-04-03T01:39:01;9.93;;;8.05;;
51332;SDS011;37417;48.118;11.734;2023-04-03T01:41:27;8.75;;;7.07;;
51332;SDS011;37417;48.118;11.734;2023-04-03T01:43:52;8.38;;;6.72;;
51332;SDS011;37417;48.118;11.734;2023-04-03T01:46:18;11.65;;;8.23;;
51332;SDS011;37417;48.118;11.734;2023-04-03T01:48:45;10.82;;;7.55;;
51332;SDS011;37417;48.118;11.734;2023-04-03T01:51:10;12.52;;;6.93;;
51332;SDS011;37417;48.118;11.734;2023-04-03T01:53:36;10.18;;;7.68;;
51332;SDS011;37417;48.118;11.734;2023-04-03T01:56:01;9.55;;;8.07;;
51332;SDS011;37417;48.118;11.734;2023-04-03T01:58:27;10.82;;;7.93;;
51332;SDS011;37417;48.118;11.734;2023-04-03T02:00:52;10.70;;;8.65;;
51332;SDS011;37417;48.118;11.734;2023-04-03T02:03:18;11.73;;;7.97;;
51332;SDS011;37417;48.118;11.734;2023-04-03T02:05:43;8.88;;;7.47;;
51332;SDS011;37417;48.118;11.734;2023-04-03T02:08:08;10.23;;;8.00;;
51332;SDS011;37417;48.118;11.734;2023-04-03T02:10:34;10.45;;;7.80;;
51332;SDS011;37417;48.118;11.734;2023-04-03T02:12:59;10.77;;;7.70;;
51332;SDS011;37417;48.118;11.734;2023-04-03T02:15:25;10.63;;;7.30;;
51332;SDS011;37417;48.118;11.734;2023-04-03T02:17:50;9.13;;;7.47;;
51332;SDS011;37417;48.118;11.734;2023-04-03T02:20:15;10.43;;;6.60;;
51332;SDS011;37417;48.118;11.734;2023-04-03T02:22:41;10.82;;;7.47;;
51332;SDS011;37417;48.118;11.734;2023-04-03T02:25:07;12.32;;;7.38;;
51332;SDS011;37417;48.118;11.734;2023-04-03T02:27:32;9.13;;;7.03;;
51332;SDS011;37417;48.118;11.734;2023-04-03T02:29:57;7.90;;;6.53;;
51332;SDS011;37417;48.118;11.734;2023-04-03T02:32:23;7.70;;;6.53;;
51332;SDS011;37417;48.118;11.734;2023-04-03T02:34:48;9.25;;;7.03;;
51332;SDS011;37417;48.118;11.734;2023-04-03T02:37:14;8.48;;;7.07;;
51332;SDS011;37417;48.118;11.734;2023-04-03T02:39:39;9.40;;;5.85;;
51332;SDS011;37417;48.118;11.734;2023-04-03T02:42:05;10.50;;;7.43;;
51332;SDS011;37417;48.118;11.734;2023-04-03T02:44:30;8.02;;;7.05;;
51332;SDS011;37417;48.118;11.734;2023-04-03T02:46:55;8.43;;;7.10;;
51332;SDS011;37417;48.118;11.734;2023-04-03T02:49:21;11.63;;;7.32;;
51332;SDS011;37417;48.118;11.734;2023-04-03T02:51:46;8.55;;;6.75;;
51332;SDS011;37417;48.118;11.734;2023-04-03T02:54:12;9.73;;;7.10;;
51332;SDS011;37417;48.118;11.734;2023-04-03T02:56:38;8.48;;;6.97;;
51332;SDS011;37417;48.118;11.734;2023-04-03T02:59:03;10.15;;;5.93;;
51332;SDS011;37417;48.118;11.734;2023-04-03T03:01:30;9.48;;;5.93;;
51332;SDS011;37417;48.118;11.734;2023-04-03T03:03:57;8.98;;;5.72;;
51332;SDS011;37417;48.118;11.734;2023-04-03T03:06:24;6.05;;;5.32;;
51332;SDS011;37417;48.118;11.734;2023-04-03T03:08:49;6.25;;;5.07;;
51332;SDS011;37417;48.118;11.734;2023-04-03T03:11:15;7.03;;;5.68;;
51332;SDS011;37417;48.118;11.734;2023-04-03T03:13:41;8.30;;;5.85;;
51332;SDS011;37417;48.118;11.734;2023-04-03T03:16:06;8.50;;;5.18;;
51332;SDS011;37417;48.118;11.734;2023-04-03T03:18:32;8.15;;;5.72;;
51332;SDS011;37417;48.118;11.734;2023-04-03T03:20:58;6.47;;;5.20;;
51332;SDS011;37417;48.118;11.734;2023-04-03T03:23:25;9.02;;;4.90;;
51332;SDS011;37417;48.118;11.734;2023-04-03T03:25:59;9.48;;;5.25;;
51332;SDS011;37417;48.118;11.734;2023-04-03T03:28:30;7.38;;;4.50;;
51332;SDS011;37417;48.118;11.734;2023-04-03T03:30:56;6.00;;;5.05;;
51332;SDS011;37417;48.118;11.734;2023-04-03T03:33:22;7.53;;;5.38;;
51332;SDS011;37417;48.118;11.734;2023-04-03T03:35:48;5.72;;;4.57;;
51332;SDS011;37417;48.118;11.734;2023-04-03T03:38:13;9.45;;;5.45;;
51332;SDS011;37417;48.118;11.734;2023-04-03T03:40:39;6.22;;;4.47;;
51332;SDS011;37417;48.118;11.734;2023-04-03T03:43:04;6.15;;;4.95;;
51332;SDS011;37417;48.118;11.734;2023-04-03T03:45:30;5.95;;;4.80;;
51332;SDS011;37417;48.118;11.734;2023-04-03T03:47:56;11.23;;;5.47;;
51332;SDS011;37417;48.118;11.734;2023-04-03T03:50:21;5.47;;;3.85;;
51332;SDS011;37417;48.118;11.734;2023-04-03T03:52:46;9.35;;;5.07;;
51332;SDS011;37417;48.118;11.734;2023-04-03T03:55:12;9.20;;;5.15;;
51332;SDS011;37417;48.118;11.734;2023-04-03T03:57:37;8.07;;;5.43;;
51332;SDS011;37417;48.118;11.734;2023-04-03T04:00:03;5.93;;;5.00;;
51332;SDS011;37417;48.118;11.734;2023-04-03T04:02:29;9.10;;;4.68;;
51332;SDS011;37417;48.118;11.734;2023-04-03T04:04:55;5.63;;;4.85;;
51332;SDS011;37417;48.118;11.734;2023-04-03T04:07:21;5.82;;;4.53;;
51332;SDS011;37417;48.118;11.734;2023-04-03T04:09:46;5.18;;;4.68;;
51332;SDS011;37417;48.118;11.734;2023-04-03T04:12:11;6.50;;;5.45;;
51332;SDS011;37417;48.118;11.734;2023-04-03T04:14:37;5.95;;;5.20;;
51332;SDS011;37417;48.118;11.734;2023-04-03T04:17:02;12.32;;;5.20;;
51332;SDS011;37417;48.118;11.734;2023-04-03T04:19:28;7.50;;;4.28;;
51332;SDS011;37417;48.118;11.734;2023-04-03T04:21:53;6.07;;;4.70;;
51332;SDS011;37417;48.118;11.734;2023-04-03T04:24:18;5.55;;;4.15;;
51332;SDS011;37417;48.118;11.734;2023-04-03T04:26:44;7.93;;;5.00;;
51332;SDS011;37417;48.118;11.734;2023-04-03T04:29:09;6.85;;;5.10;;
51332;SDS011;37417;48.118;11.734;2023-04-03T04:31:35;6.13;;;5.18;;
51332;SDS011;37417;48.118;11.734;2023-04-03T04:34:01;8.30;;;5.32;;
51332;SDS011;37417;48.118;11.734;2023-04-03T04:36:26;7.53;;;4.78;;
51332;SDS011;37417;48.118;11.734;2023-04-03T04:38:51;5.78;;;4.55;;
51332;SDS011;37417;48.118;11.734;2023-04-03T04:41:19;5.45;;;4.40;;
51332;SDS011;37417;48.118;11.734;2023-04-03T04:43:47;4.68;;;4.07;;
51332;SDS011;37417;48.118;11.734;2023-04-03T04:46:13;6.68;;;4.65;;
51332;SDS011;37417;48.118;11.734;2023-04-03T04:48:38;5.93;;;4.78;;
51332;SDS011;37417;48.118;11.734;2023-04-03T04:51:03;6.70;;;4.38;;
51332;SDS011;37417;48.118;11.734;2023-04-03T04:53:29;5.93;;;5.32;;
51332;SDS011;37417;48.118;11.734;2023-04-03T04:55:55;5.97;;;5.20;;
51332;SDS011;37417;48.118;11.734;2023-04-03T04:58:20;5.97;;;5.38;;
51332;SDS011;37417;48.118;11.734;2023-04-03T05:00:46;5.53;;;4.18;;
51332;SDS011;37417;48.118;11.734;2023-04-03T05:03:11;6.50;;;4.53;;
51332;SDS011;37417;48.118;11.734;2023-04-03T05:05:37;7.00;;;5.07;;
51332;SDS011;37417;48.118;11.734;2023-04-03T05:08:02;8.77;;;5.50;;
51332;SDS011;37417;48.118;11.734;2023-04-03T05:10:28;7.05;;;4.85;;
51332;SDS011;37417;48.118;11.734;2023-04-03T05:12:54;7.05;;;5.00;;
51332;SDS011;37417;48.118;11.734;2023-04-03T05:15:19;8.85;;;4.80;;
51332;SDS011;37417;48.118;11.734;2023-04-03T05:17:45;8.57;;;5.03;;
51332;SDS011;37417;48.118;11.734;2023-04-03T05:20:10;5.45;;;4.60;;
51332;SDS011;37417;48.118;11.734;2023-04-03T05:22:36;7.25;;;5.32;;
51332;SDS011;37417;48.118;11.734;2023-04-03T05:25:01;4.88;;;4.25;;
51332;SDS011;37417;48.118;11.734;2023-04-03T05:27:26;8.70;;;5.35;;
51332;SDS011;37417;48.118;11.734;2023-04-03T05:29:53;7.90;;;4.68;;
51332;SDS011;37417;48.118;11.734;2023-04-03T05:32:19;5.75;;;4.75;;
51332;SDS011;37417;48.118;11.734;2023-04-03T05:34:45;6.28;;;4.95;;
51332;SDS011;37417;48.118;11.734;2023-04-03T05:37:10;7.65;;;5.28;;
51332;SDS011;37417;48.118;11.734;2023-04-03T05:39:36;6.85;;;4.40;;
51332;SDS011;37417;48.118;11.734;2023-04-03T05:42:03;5.72;;;5.07;;
51332;SDS011;37417;48.118;11.734;2023-04-03T05:44:29;6.80;;;5.25;;
51332;SDS011;37417;48.118;11.734;2023-04-03T05:46:54;6.80;;;4.53;;
51332;SDS011;37417;48.118;11.734;2023-04-03T05:49:19;8.98;;;5.13;;
51332;SDS011;37417;48.118;11.734;2023-04-03T05:51:45;4.75;;;4.10;;
51332;SDS011;37417;48.118;11.734;2023-04-03T05:54:16;6.43;;;4.93;;
51332;SDS011;37417;48.118;11.734;2023-04-03T05:56:44;6.43;;;4.63;;
51332;SDS011;37417;48.118;11.734;2023-04-03T05:59:10;4.72;;;4.13;;
51332;SDS011;37417;48.118;11.734;2023-04-03T06:01:36;5.18;;;4.68;;
51332;SDS011;37417;48.118;11.734;2023-04-03T06:04:02;5.72;;;4.88;;
51332;SDS011;37417;48.118;11.734;2023-04-03T06:06:42;5.07;;;4.38;;
51332;SDS011;37417;48.118;11.734;2023-04-03T06:09:13;5.25;;;3.97;;
51332;SDS011;37417;48.118;11.734;2023-04-03T06:11:39;4.53;;;4.00;;
51332;SDS011;37417;48.118;11.734;2023-04-03T06:14:05;5.55;;;4.22;;
51332;SDS011;37417;48.118;11.734;2023-04-03T06:16:31;5.53;;;4.20;;
51332;SDS011;37417;48.118;11.734;2023-04-03T06:18:57;5.68;;;4.60;;
51332;SDS011;37417;48.118;11.734;2023-04-03T06:21:22;6.20;;;4.78;;
51332;SDS011;37417;48.118;11.734;2023-04-03T06:23:47;5.00;;;4.40;;
51332;SDS011;37417;48.118;11.734;2023-04-03T06:26:13;4.38;;;3.75;;
51332;SDS011;37417;48.118;11.734;2023-04-03T06:28:38;4.68;;;4.18;;
51332;SDS011;37417;48.118;11.734;2023-04-03T06:31:03;4.60;;;3.78;;
51332;SDS011;37417;48.118;11.734;2023-04-03T06:33:29;5.47;;;3.72;;
51332;SDS011;37417;48.118;11.734;2023-04-03T06:35:58;7.18;;;4.00;;
51332;SDS011;37417;48.118;11.734;2023-04-03T06:38:24;6.25;;;4.28;;
51332;SDS011;37417;48.118;11.734;2023-04-03T06:40:49;7.30;;;4.93;;
51332;SDS011;37417;48.118;11.734;2023-04-03T06:43:16;4.85;;;3.88;;
51332;SDS011;37417;48.118;11.734;2023-04-03T06:45:42;5.97;;;4.28;;
51332;SDS011;37417;48.118;11.734;2023-04-03T06:48:07;4.00;;;3.63;;
51332;SDS011;37417;48.118;11.734;2023-04-03T06:50:32;6.63;;;4.05;;
51332;SDS011;37417;48.118;11.734;2023-04-03T06:52:58;4.75;;;4.03;;
51332;SDS011;37417;48.118;11.734;2023-04-03T06:55:23;6.63;;;3.53;;
51332;SDS011;37417;48.118;11.734;2023-04-03T06:57:49;6.70;;;3.35;;
51332;SDS011;37417;48.118;11.734;2023-04-03T07:00:14;5.40;;;3.58;;
51332;SDS011;37417;48.118;11.734;2023-04-03T07:02:41;4.25;;;3.30;;
51332;SDS011;37417;48.118;11.734;2023-04-03T07:05:06;5.95;;;3.70;;
51332;SDS011;37417;48.118;11.734;2023-04-03T07:07:32;4.22;;;3.42;;
51332;SDS011;37417;48.118;11.734;2023-04-03T07:09:59;6.45;;;3.85;;
51332;SDS011;37417;48.118;11.734;2023-04-03T07:12:24;3.70;;;3.38;;
51332;SDS011;37417;48.118;11.734;2023-04-03T07:14:50;6.35;;;3.40;;
51332;SDS011;37417;48.118;11.734;2023-04-03T07:17:15;6.43;;;3.65;;
51332;SDS011;37417;48.118;11.734;2023-04-03T07:19:41;4.28;;;3.33;;
51332;SDS011;37417;48.118;11.734;2023-04-03T07:22:06;6.07;;;3.05;;
51332;SDS011;37417;48.118;11.734;2023-04-03T07:24:32;3.83;;;3.38;;
51332;SDS011;37417;48.118;11.734;2023-04-03T07:26:58;6.43;;;3.90;;
51332;SDS011;37417;48.118;11.734;2023-04-03T07:29:23;6.38;;;3.33;;
51332;SDS011;37417;48.118;11.734;2023-04-03T07:31:48;5.07;;;3.08;;
51332;SDS011;37417;48.118;11.734;2023-04-03T07:34:14;4.43;;;3.47;;
51332;SDS011;37417;48.118;11.734;2023-04-03T07:36:39;6.00;;;3.65;;
51332;SDS011;37417;48.118;11.734;2023-04-03T07:39:05;6.47;;;3.47;;
51332;SDS011;37417;48.118;11.734;2023-04-03T07:41:32;5.05;;;3.28;;
51332;SDS011;37417;48.118;11.734;2023-04-03T07:43:57;5.03;;;3.25;;
51332;SDS011;37417;48.118;11.734;2023-04-03T07:46:23;6.45;;;3.75;;
51332;SDS011;37417;48.118;11.734;2023-04-03T07:48:48;3.20;;;2.50;;
51332;SDS011;37417;48.118;11.734;2023-04-03T07:51:14;6.25;;;3.13;;
51332;SDS011;37417;48.118;11.734;2023-04-03T07:53:40;5.53;;;3.63;;
51332;SDS011;37417;48.118;11.734;2023-04-03T07:56:06;5.63;;;3.53;;
51332;SDS011;37417;48.118;11.734;2023-04-03T07:58:31;4.05;;;3.53;;
51332;SDS011;37417;48.118;11.734;2023-04-03T08:00:57;6.45;;;4.15;;
51332;SDS011;37417;48.118;11.734;2023-04-03T08:03:22;3.25;;;2.95;;
51332;SDS011;37417;48.118;11.734;2023-04-03T08:05:48;3.28;;;2.33;;
51332;SDS011;37417;48.118;11.734;2023-04-03T08:08:18;9.48;;;4.30;;
51332;SDS011;37417;48.118;11.734;2023-04-03T08:10:52;6.80;;;3.85;;
51332;SDS011;37417;48.118;11.734;2023-04-03T08:13:19;4.05;;;3.60;;
51332;SDS011;37417;48.118;11.734;2023-04-03T08:15:45;3.63;;;2.28;;
51332;SDS011;37417;48.118;11.734;2023-04-03T08:18:10;3.13;;;2.47;;
51332;SDS011;37417;48.118;11.734;2023-04-03T08:20:37;5.43;;;3.70;;
51332;SDS011;37417;48.118;11.734;2023-04-03T08:23:03;4.25;;;3.10;;
51332;SDS011;37417;48.118;11.734;2023-04-03T08:25:28;5.55;;;4.20;;
51332;SDS011;37417;48.118;11.734;2023-04-03T08:27:54;3.90;;;3.58;;
51332;SDS011;37417;48.118;11.734;2023-04-03T08:30:20;4.32;;;3.83;;
51332;SDS011;37417;48.118;11.734;2023-04-03T08:32:45;4.32;;;3.90;;
51332;SDS011;37417;48.118;11.734;2023-04-03T08:35:11;6.60;;;3.67;;
51332;SDS011;37417;48.118;11.734;2023-04-03T08:37:37;8.85;;;3.58;;
51332;SDS011;37417;48.118;11.734;2023-04-03T08:40:04;10.95;;;3.35;;
51332;SDS011;37417;48.118;11.734;2023-04-03T08:42:48;5.97;;;3.47;;
51332;SDS011;37417;48.118;11.734;2023-04-03T08:48:19;3.15;;;2.83;;
51332;SDS011;37417;48.118;11.734;2023-04-03T08:50:52;4.18;;;3.47;;
51332;SDS011;37417;48.118;11.734;2023-04-03T08:53:21;3.75;;;2.88;;
51332;SDS011;37417;48.118;11.734;2023-04-03T08:55:50;3.97;;;3.20;;
51332;SDS011;37417;48.118;11.734;2023-04-03T08:58:19;4.25;;;3.10;;
51332;SDS011;37417;48.118;11.734;2023-04-03T09:03:18;3.97;;;2.85;;
51332;SDS011;37417;48.118;11.734;2023-04-03T09:05:53;7.50;;;2.80;;
51332;SDS011;37417;48.118;11.734;2023-04-03T09:08:26;4.28;;;3.08;;
51332;SDS011;37417;48.118;11.734;2023-04-03T09:11:15;4.28;;;3.17;;
51332;SDS011;37417;48.118;11.734;2023-04-03T09:13:57;5.88;;;2.75;;
51332;SDS011;37417;48.118;11.734;2023-04-03T09:21:57;4.60;;;2.85;;
51332;SDS011;37417;48.118;11.734;2023-04-03T09:24:36;8.05;;;2.90;;
51332;SDS011;37417;48.118;11.734;2023-04-03T09:27:06;4.13;;;2.95;;
51332;SDS011;37417;48.118;11.734;2023-04-03T09:29:35;3.17;;;2.72;;
51332;SDS011;37417;48.118;11.734;2023-04-03T09:32:15;4.25;;;3.22;;
51332;SDS011;37417;48.118;11.734;2023-04-03T09:34:45;4.93;;;2.95;;
51332;SDS011;37417;48.118;11.734;2023-04-03T09:37:17;4.38;;;2.92;;
51332;SDS011;37417;48.118;11.734;2023-04-03T09:40:00;6.00;;;3.42;;
51332;SDS011;37417;48.118;11.734;2023-04-03T09:42:25;3.90;;;3.03;;
51332;SDS011;37417;48.118;11.734;2023-04-03T09:44:55;5.38;;;3.80;;
51332;SDS011;37417;48.118;11.734;2023-04-03T09:47:30;3.47;;;2.83;;
51332;SDS011;37417;48.118;11.734;2023-04-03T09:52:43;3.00;;;2.70;;
51332;SDS011;37417;48.118;11.734;2023-04-03T09:55:18;4.00;;;3.22;;
51332;SDS011;37417;48.118;11.734;2023-04-03T09:57:57;5.28;;;2.88;;
51332;SDS011;37417;48.118;11.734;2023-04-03T10:02:58;3.70;;;2.85;;
51332;SDS011;37417;48.118;11.734;2023-04-03T10:05:29;2.97;;;2.70;;
51332;SDS011;37417;48.118;11.734;2023-04-03T10:08:08;3.92;;;2.58;;
51332;SDS011;37417;48.118;11.734;2023-04-03T10:10:40;5.00;;;3.08;;
51332;SDS011;37417;48.118;11.734;2023-04-03T10:13:09;3.05;;;2.30;;
51332;SDS011;37417;48.118;11.734;2023-04-03T10:15:45;6.78;;;3.03;;
51332;SDS011;37417;48.118;11.734;2023-04-03T10:18:24;4.53;;;2.63;;
51332;SDS011;37417;48.118;11.734;2023-04-03T10:21:21;3.92;;;2.83;;
51332;SDS011;37417;48.118;11.734;2023-04-03T10:35:58;8.20;;;2.92;;
51332;SDS011;37417;48.118;11.734;2023-04-03T10:52:02;3.45;;;2.08;;
51332;SDS011;37417;48.118;11.734;2023-04-03T10:54:39;4.20;;;2.47;;
51332;SDS011;37417;48.118;11.734;2023-04-03T10:57:10;2.90;;;2.50;;
51332;SDS011;37417;48.118;11.734;2023-04-03T10:59:38;3.10;;;2.72;;
51332;SDS011;37417;48.118;11.734;2023-04-03T11:02:14;3.70;;;2.40;;
51332;SDS011;37417;48.118;11.734;2023-04-03T11:04:44;2.80;;;2.50;;
51332;SDS011;37417;48.118;11.734;2023-04-03T11:10:35;2.45;;;2.25;;
51332;SDS011;37417;48.118;11.734;2023-04-03T11:13:03;3.83;;;2.47;;
51332;SDS011;37417;48.118;11.734;2023-04-03T11:15:35;4.88;;;2.53;;
51332;SDS011;37417;48.118;11.734;2023-04-03T11:18:02;3.70;;;2.75;;
51332;SDS011;37417;48.118;11.734;2023-04-03T11:20:38;2.17;;;1.98;;
51332;SDS011;37417;48.118;11.734;2023-04-03T11:23:22;10.57;;;4.07;;
51332;SDS011;37417;48.118;11.734;2023-04-03T11:25:51;4.03;;;2.72;;
51332;SDS011;37417;48.118;11.734;2023-04-03T11:28:20;2.63;;;2.30;;
51332;SDS011;37417;48.118;11.734;2023-04-03T11:33:41;3.63;;;1.70;;
51332;SDS011;37417;48.118;11.734;2023-04-03T11:36:24;3.53;;;2.33;;
51332;SDS011;37417;48.118;11.734;2023-04-03T11:38:53;6.57;;;2.88;;
51332;SDS011;37417;48.118;11.734;2023-04-03T11:41:29;4.63;;;2.30;;
51332;SDS011;37417;48.118;11.734;2023-04-03T11:46:52;2.90;;;2.17;;
51332;SDS011;37417;48.118;11.734;2023-04-03T11:52:53;1.70;;;1.60;;
51332;SDS011;37417;48.118;11.734;2023-04-03T12:08:27;3.97;;;1.73;;
51332;SDS011;37417;48.118;11.734;2023-04-03T12:13:38;5.68;;;1.38;;
51332;SDS011;37417;48.118;11.734;2023-04-03T12:40:30;2.95;;;1.02;;
51332;SDS011;37417;48.118;11.734;2023-04-03T12:48:11;2.95;;;1.67;;
51332;SDS011;37417;48.118;11.734;2023-04-03T12:50:41;6.38;;;1.58;;
51332;SDS011;37417;48.118;11.734;2023-04-03T12:53:16;3.05;;;1.70;;
51332;SDS011;37417;48.118;11.734;2023-04-03T12:55:46;2.83;;;1.15;;
51332;SDS011;37417;48.118;11.734;2023-04-03T12:58:24;1.67;;;1.00;;
51332;SDS011;37417;48.118;11.734;2023-04-03T13:00:59;2.88;;;1.50;;
51332;SDS011;37417;48.118;11.734;2023-04-03T13:03:27;2.10;;;1.35;;
51332;SDS011;37417;48.118;11.734;2023-04-03T13:05:57;3.70;;;1.30;;
51332;SDS011;37417;48.118;11.734;2023-04-03T13:08:25;1.90;;;1.40;;
51332;SDS011;37417;48.118;11.734;2023-04-03T13:11:03;2.13;;;1.30;;
51332;SDS011;37417;48.118;11.734;2023-04-03T13:13:34;1.85;;;1.10;;
51332;SDS011;37417;48.118;11.734;2023-04-03T13:16:01;2.58;;;1.23;;
51332;SDS011;37417;48.118;11.734;2023-04-03T13:18:36;2.80;;;0.90;;
51332;SDS011;37417;48.118;11.734;2023-04-03T13:23:40;4.80;;;1.42;;
51332;SDS011;37417;48.118;11.734;2023-04-03T13:26:09;1.58;;;1.00;;
51332;SDS011;37417;48.118;11.734;2023-04-03T13:28:35;1.88;;;1.42;;
51332;SDS011;37417;48.118;11.734;2023-04-03T13:31:14;1.52;;;1.02;;
51332;SDS011;37417;48.118;11.734;2023-04-03T13:33:55;2.40;;;1.05;;
51332;SDS011;37417;48.118;11.734;2023-04-03T13:36:22;4.03;;;1.10;;
51332;SDS011;37417;48.118;11.734;2023-04-03T13:39:21;2.17;;;0.93;;
51332;SDS011;37417;48.118;11.734;2023-04-03T13:41:48;1.85;;;0.82;;
51332;SDS011;37417;48.118;11.734;2023-04-03T13:44:16;1.55;;;1.00;;
51332;SDS011;37417;48.118;11.734;2023-04-03T13:49:45;1.40;;;0.90;;
51332;SDS011;37417;48.118;11.734;2023-04-03T13:52:33;2.58;;;1.23;;
51332;SDS011;37417;48.118;11.734;2023-04-03T13:57:58;1.77;;;1.15;;
51332;SDS011;37417;48.118;11.734;2023-04-03T14:00:37;1.60;;;1.23;;
51332;SDS011;37417;48.118;11.734;2023-04-03T14:03:11;2.42;;;1.38;;
51332;SDS011;37417;48.118;11.734;2023-04-03T14:05:48;1.13;;;1.02;;
51332;SDS011;37417;48.118;11.734;2023-04-03T14:08:13;1.08;;;0.90;;
51332;SDS011;37417;48.118;11.734;2023-04-03T14:10:39;2.60;;;1.40;;
51332;SDS011;37417;48.118;11.734;2023-04-03T14:13:05;2.42;;;1.00;;
51332;SDS011;37417;48.118;11.734;2023-04-03T14:15:31;2.00;;;1.38;;
51332;SDS011;37417;48.118;11.734;2023-04-03T14:17:57;2.58;;;1.30;;
51332;SDS011;37417;48.118;11.734;2023-04-03T14:20:24;3.65;;;0.70;;
51332;SDS011;37417;48.118;11.734;2023-04-03T14:22:51;3.72;;;1.17;;
51332;SDS011;37417;48.118;11.734;2023-04-03T14:25:19;2.17;;;1.00;;
51332;SDS011;37417;48.118;11.734;2023-04-03T14:27:46;2.80;;;1.38;;
51332;SDS011;37417;48.118;11.734;2023-04-03T14:30:35;1.63;;;0.82;;
51332;SDS011;37417;48.118;11.734;2023-04-03T14:33:01;2.00;;;1.15;;
51332;SDS011;37417;48.118;11.734;2023-04-03T14:35:27;2.88;;;0.90;;
51332;SDS011;37417;48.118;11.734;2023-04-03T14:37:53;1.63;;;0.93;;
51332;SDS011;37417;48.118;11.734;2023-04-03T14:40:24;2.33;;;1.05;;
51332;SDS011;37417;48.118;11.734;2023-04-03T14:42:51;0.97;;;0.90;;
51332;SDS011;37417;48.118;11.734;2023-04-03T14:45:20;1.20;;;1.02;;
51332;SDS011;37417;48.118;11.734;2023-04-03T14:47:50;1.95;;;1.02;;
51332;SDS011;37417;48.118;11.734;2023-04-03T14:50:21;1.33;;;0.93;;
51332;SDS011;37417;48.118;11.734;2023-04-03T14:52:50;2.78;;;0.80;;
51332;SDS011;37417;48.118;11.734;2023-04-03T14:55:19;1.25;;;0.95;;
51332;SDS011;37417;48.118;11.734;2023-04-03T14:57:46;8.35;;;1.20;;
51332;SDS011;37417;48.118;11.734;2023-04-03T15:00:12;1.50;;;0.82;;
51332;SDS011;37417;48.118;11.734;2023-04-03T15:02:40;2.03;;;1.25;;
51332;SDS011;37417;48.118;11.734;2023-04-03T15:05:07;0.95;;;0.82;;
51332;SDS011;37417;48.118;11.734;2023-04-03T15:07:44;2.30;;;0.75;;
51332;SDS011;37417;48.118;11.734;2023-04-03T15:12:47;2.47;;;1.40;;
51332;SDS011;37417;48.118;11.734;2023-04-03T15:15:14;1.70;;;1.20;;
51332;SDS011;37417;48.118;11.734;2023-04-03T15:17:40;0.70;;;0.65;;
51332;SDS011;37417;48.118;11.734;2023-04-03T15:20:14;2.58;;;1.00;;
51332;SDS011;37417;48.118;11.734;2023-04-03T15:22:41;1.35;;;1.23;;
51332;SDS011;37417;48.118;11.734;2023-04-03T15:25:07;1.13;;;0.70;;
51332;SDS011;37417;48.118;11.734;2023-04-03T15:27:33;0.90;;;0.90;;
51332;SDS011;37417;48.118;11.734;2023-04-03T15:29:58;3.13;;;1.08;;
51332;SDS011;37417;48.118;11.734;2023-04-03T15:32:24;1.42;;;0.80;;
51332;SDS011;37417;48.118;11.734;2023-04-03T15:34:49;0.85;;;0.70;;
51332;SDS011;37417;48.118;11.734;2023-04-03T15:37:15;1.33;;;0.80;;
51332;SDS011;37417;48.118;11.734;2023-04-03T15:39:40;1.65;;;1.08;;
51332;SDS011;37417;48.118;11.734;2023-04-03T15:42:06;1.20;;;0.65;;
51332;SDS011;37417;48.118;11.734;2023-04-03T15:44:32;1.38;;;0.90;;
51332;SDS011;37417;48.118;11.734;2023-04-03T15:46:58;1.58;;;0.73;;
51332;SDS011;37417;48.118;11.734;2023-04-03T15:49:25;1.98;;;1.00;;
51332;SDS011;37417;48.118;11.734;2023-04-03T15:51:51;1.30;;;0.75;;
51332;SDS011;37417;48.118;11.734;2023-04-03T15:54:16;0.93;;;0.80;;
51332;SDS011;37417;48.118;11.734;2023-04-03T15:56:42;4.15;;;1.05;;
51332;SDS011;37417;48.118;11.734;2023-04-03T15:59:07;1.60;;;0.90;;
51332;SDS011;37417;48.118;11.734;2023-04-03T16:01:33;4.93;;;1.10;;
51332;SDS011;37417;48.118;11.734;2023-04-03T16:03:58;2.28;;;1.25;;
51332;SDS011;37417;48.118;11.734;2023-04-03T16:06:25;4.03;;;1.40;;
51332;SDS011;37417;48.118;11.734;2023-04-03T16:08:51;2.22;;;1.02;;
51332;SDS011;37417;48.118;11.734;2023-04-03T16:11:16;2.95;;;1.10;;
51332;SDS011;37417;48.118;11.734;2023-04-03T16:13:42;3.13;;;1.13;;
51332;SDS011;37417;48.118;11.734;2023-04-03T16:16:08;1.65;;;0.85;;
51332;SDS011;37417;48.118;11.734;2023-04-03T16:18:34;2.90;;;1.13;;
51332;SDS011;37417;48.118;11.734;2023-04-03T16:21:00;1.23;;;1.05;;
51332;SDS011;37417;48.118;11.734;2023-04-03T16:23:26;1.35;;;0.90;;
51332;SDS011;37417;48.118;11.734;2023-04-03T16:25:51;1.27;;;0.70;;
51332;SDS011;37417;48.118;11.734;2023-04-03T16:28:17;1.17;;;0.85;;
51332;SDS011;37417;48.118;11.734;2023-04-03T16:30:44;1.77;;;0.82;;
51332;SDS011;37417;48.118;11.734;2023-04-03T16:33:11;2.00;;;0.70;;
51332;SDS011;37417;48.118;11.734;2023-04-03T16:35:37;4.97;;;0.90;;